Warsaw, IN (46580)

9:47 AM EST on December 19, 2014 (GMT -0500)
15 South | Change Station
CLOSE
Current Station
Personal Weather Station
Location: Warsaw, IN
Elevation: 840 ft
Nearby Weather Stations

Elev 840 ft 41.22 °N, 85.87 °W | Updated 3 minutes ago

Overcast
Overcast
27.2 °F
Feels Like 27 °F
N
2.0
Wind Variable Wind from WSW
Gusts 2.0 mph

Today
High -- | Low -- °F
--% Chance of Precip.
Yesterday
High -- | Low -- °F
Precip. -- in
8:04 AM 5:16 PM
Waning Crescent, 7% visible
Pressure 30.26 in
Visibility 5.0 miles
Clouds Overcast 3000 ft
Windchill 27 °F
Dew Point 25 °F
Humidity 90%
Rainfall 0.00 in
Snow Depth Not available.
UV 0 out of 12
Pollen .10 out of 12
Air Quality Not available.
Flu Activity Not available.
METAR KASW 191435Z AUTO 00000KT 5SM BR OVC030 M02/M03 A3026 RMK AO2

More Conditions Fewer Conditions

Pressure 30.26 in
Visibility 5.0 miles
Clouds Overcast 3000 ft
Windchill 27 °F
Dew Point 25 °F
Humidity 90%
Rainfall 0.00 in
Snow Depth Not available.
UV 0 out of 12
Pollen .10 out of 12
Air Quality Not available.
Flu Activity Not available.
METAR KASW 191435Z AUTO 00000KT 5SM BR OVC030 M02/M03 A3026 RMK AO2

More Conditions Fewer Conditions

10-Day Weather Forecast

Almanac

Astronomy

Dec. 19, 2014 Rise Set
Actual Time
Civil Twilight
Nautical Twilight
Astronomical Twilight
Moon
Length of Visible Light
Length of Day
Tomorrow will be .
, % of the Moon is Illuminated

Today's Extremes

State Highs State Lows

Community

WunderPhotos

Upload Photos

1,778,988 photos uploaded!

WunderBlogs® & News

Nearby

Air Quality

  Air Quality AQ Index Pollutant
Not available.

Snow Depth

Station Depth Elevation

Earthquake Activity

City Distance Mag. Time & Date
Minimum magnitude displayed is 2.5.

Coastal Water Temperatures

Place Temperature

Nearby Weather Stations